CheckWX is a tool to help pilots better visualize weather data.  It is not intended as a substitute for an official pre-flight weather briefing.

11:26:09 UTC

KEGI METAR
Duke Field Airport
Crestview, Florida, USA
Current

30 mins ago

KEGI 041056Z AUTO 05003KT 10SM BKN011 22/22 A2990 RMK AO2 BKN V SCT SLP124 T02220215 $
Observed
Jul-4 @ 10:56 UTC
Wind
  • 050° at 3 KTS
Visibility
10 SM
Flight Rules
MVFR
Cloud Levels
  • Broken at 1,100' AGL
Temperature
22°C / 72°F
Dewpoint
22°C / 72°F
Humidity
100%
Altimeter
29.9" Hg
Pressure
1012.52 hPa
Previous

40 mins ago

KEGI 041046Z AUTO 06005KT 10SM BKN011 22/22 A2989 RMK AO2 BKN V SCT SLP121 $
Observed
Jul-4 @ 10:46 UTC
Wind
  • 060° at 5 KTS
Visibility
10 SM
Flight Rules
MVFR
Cloud Levels
  • Broken at 1,100' AGL
Temperature
22°C / 72°F
Dewpoint
22°C / 72°F
Humidity
100%
Altimeter
29.89" Hg
Pressure
1012.22 hPa
Previous

2 hours ago

KEGI 040956Z AUTO 03003KT 10SM CLR 22/21 A2988 RMK AO2 LTG DSNT S SLP117 T02210214 $
Observed
Jul-4 @ 09:56 UTC
Wind
  • 030° at 3 KTS
Visibility
10 SM
Flight Rules
VFR
Cloud Levels
  • Clear skies
Temperature
22°C / 72°F
Dewpoint
21°C / 70°F
Humidity
94%
Altimeter
29.88" Hg
Pressure
1011.82 hPa